createdAt,value
2022-09-05T00:00:27.238Z,19.41
2022-09-05T00:01:27.897Z,19.42
2022-09-05T00:02:27.333Z,19.44
2022-09-05T00:03:27.501Z,19.41
2022-09-05T00:04:27.320Z,19.32
2022-09-05T00:05:27.160Z,19.39
2022-09-05T00:06:27.148Z,19.41
2022-09-05T00:07:31.201Z,19.38
2022-09-05T00:08:28.127Z,19.44
2022-09-05T00:09:27.835Z,19.37
2022-09-05T00:10:27.114Z,19.38
2022-09-05T00:11:40.757Z,19.31
2022-09-05T00:12:28.102Z,19.27
2022-09-05T00:13:27.074Z,19.30
2022-09-05T00:14:34.451Z,19.35
2022-09-05T00:15:28.061Z,19.31
2022-09-05T00:16:30.222Z,19.31
2022-09-05T00:17:39.416Z,19.23
2022-09-05T00:24:18.432Z,19.34
2022-09-05T00:24:18.968Z,19.23
2022-09-05T00:24:19.487Z,19.26
2022-09-05T00:24:27.975Z,19.34
2022-09-05T00:24:36.441Z,19.20
2022-09-05T00:24:37.161Z,19.22
2022-09-05T00:24:45.751Z,19.17
2022-09-05T00:25:31.605Z,19.22
2022-09-05T00:26:28.572Z,19.22
2022-09-05T00:27:26.965Z,19.20
2022-09-05T00:28:27.234Z,19.19
2022-09-05T00:30:15.215Z,19.22
2022-09-05T00:31:08.755Z,19.15
2022-09-05T00:31:53.377Z,19.09
2022-09-05T00:32:27.954Z,19.08
2022-09-05T00:33:27.059Z,19.15
2022-09-05T00:34:26.849Z,19.08
2022-09-05T00:35:27.830Z,19.12
2022-09-05T00:36:26.824Z,19.15
2022-09-05T00:37:26.827Z,19.04
2022-09-05T00:38:30.486Z,19.08
2022-09-05T00:39:27.842Z,19.12
2022-09-05T00:40:26.872Z,19.04
2022-09-05T00:41:26.762Z,19.04
2022-09-05T00:42:26.769Z,19.04
2022-09-05T00:43:26.745Z,19.01
2022-09-05T00:44:26.726Z,19.01
2022-09-05T00:45:26.717Z,18.98
2022-09-05T00:46:26.854Z,19.00
2022-09-05T00:47:26.712Z,18.96
2022-09-05T00:48:26.687Z,19.00
2022-09-05T00:49:26.670Z,18.91
2022-09-05T00:50:26.667Z,18.89
2022-09-05T00:51:29.191Z,18.89
2022-09-05T00:52:27.650Z,18.89
2022-09-05T00:53:26.636Z,18.91
2022-09-05T00:54:28.348Z,18.85
2022-09-05T00:55:27.605Z,18.91
2022-09-05T00:56:26.593Z,18.89
2022-09-05T00:57:26.600Z,18.85
2022-09-05T00:58:26.578Z,18.85
2022-09-05T00:59:27.567Z,18.88
2022-09-05T01:00:26.552Z,18.78
2022-09-05T01:01:26.679Z,18.88
2022-09-05T01:02:26.627Z,18.85
2022-09-05T01:03:26.691Z,18.79
2022-09-05T01:04:26.503Z,18.81
2022-09-05T01:05:26.498Z,18.88
2022-09-05T01:06:26.504Z,18.85
2022-09-05T01:07:26.517Z,18.71
2022-09-05T01:08:26.462Z,18.81
2022-09-05T01:09:26.454Z,18.78
2022-09-05T01:10:26.462Z,18.74
2022-09-05T01:11:26.428Z,18.75
2022-09-05T01:12:26.433Z,18.81
2022-09-05T01:13:26.428Z,18.75
2022-09-05T01:14:26.397Z,18.71
2022-09-05T01:15:32.304Z,18.74
2022-09-05T01:16:27.428Z,18.68
2022-09-05T01:17:26.376Z,18.71
2022-09-05T01:18:26.347Z,18.64
2022-09-05T01:19:26.345Z,18.66
2022-09-05T01:20:26.346Z,18.66
2022-09-05T01:21:26.341Z,18.67
2022-09-05T01:22:26.324Z,18.67
2022-09-05T01:23:26.403Z,18.63
2022-09-05T01:24:27.707Z,18.67
2022-09-05T01:25:26.296Z,18.64
2022-09-05T01:26:26.264Z,18.61
2022-09-05T01:27:26.274Z,18.57
2022-09-05T01:29:15.202Z,18.58
2022-09-05T01:29:27.238Z,18.52
2022-09-05T01:30:31.795Z,18.56
2022-09-05T01:31:27.278Z,18.52
2022-09-05T01:32:26.211Z,18.56
2022-09-05T01:33:26.256Z,18.52
2022-09-05T01:34:31.308Z,18.52
2022-09-05T01:35:27.176Z,18.54
2022-09-05T01:36:26.154Z,18.52
2022-09-05T01:37:33.686Z,18.48
2022-09-05T01:38:27.142Z,18.57
2022-09-05T01:39:55.187Z,18.48
2022-09-05T01:40:27.177Z,18.51
2022-09-05T01:41:26.154Z,18.49
2022-09-05T01:42:26.103Z,18.48
2022-09-05T01:43:26.298Z,18.43
2022-09-05T01:44:26.062Z,18.45
2022-09-05T01:45:31.767Z,18.43
2022-09-05T01:46:27.076Z,18.43
2022-09-05T01:47:31.117Z,18.48
2022-09-05T01:48:27.323Z,18.43
2022-09-05T01:49:26.031Z,18.41
2022-09-05T01:50:26.009Z,18.43
2022-09-05T01:51:29.067Z,18.33
2022-09-05T01:52:27.006Z,18.43
2022-09-05T01:53:26.134Z,18.36
2022-09-05T01:54:28.794Z,18.33
2022-09-05T01:55:25.952Z,18.42
2022-09-05T01:56:26.045Z,18.43
2022-09-05T01:57:25.969Z,18.34
2022-09-05T01:58:25.913Z,18.31
2022-09-05T01:59:25.906Z,18.33
2022-09-05T02:00:25.900Z,18.30
2022-09-05T02:01:32.465Z,18.28
2022-09-05T02:02:27.148Z,18.26
2022-09-05T02:03:26.100Z,18.26
2022-09-05T02:04:25.848Z,18.24
2022-09-05T02:05:48.829Z,18.33
2022-09-05T02:06:26.834Z,18.43
2022-09-05T02:07:31.250Z,18.23
2022-09-05T02:08:26.819Z,18.26
2022-09-05T02:09:25.797Z,18.34
2022-09-05T02:10:25.798Z,18.41
2022-09-05T02:11:35.532Z,18.36
2022-09-05T02:12:26.781Z,18.38
2022-09-05T02:13:25.938Z,18.31
2022-09-05T02:14:33.568Z,18.24
2022-09-05T02:15:26.773Z,18.31
2022-09-05T02:16:25.774Z,18.33
2022-09-05T02:17:47.997Z,18.24
2022-09-05T02:18:26.705Z,18.27
2022-09-05T02:19:25.688Z,18.28
2022-09-05T02:20:25.688Z,18.26
2022-09-05T02:21:25.660Z,18.23
2022-09-05T02:22:25.674Z,18.26
2022-09-05T02:23:41.271Z,18.23
2022-09-05T02:24:26.632Z,18.26
2022-09-05T02:26:01.799Z,18.15
2022-09-05T02:26:26.619Z,18.21
2022-09-05T02:28:03.706Z,18.21
2022-09-05T02:28:26.605Z,18.28
2022-09-05T02:29:28.655Z,18.21
2022-09-05T02:30:25.580Z,18.23
2022-09-05T02:31:25.595Z,18.24
2022-09-05T02:32:25.542Z,18.26
2022-09-05T02:33:25.664Z,18.17
2022-09-05T02:34:25.549Z,18.18
2022-09-05T02:35:25.510Z,18.21
2022-09-05T02:36:25.500Z,18.15
2022-09-05T02:37:37.173Z,18.13
2022-09-05T02:40:29.906Z,18.12
2022-09-05T02:45:00.676Z,18.11
2022-09-05T02:45:00.803Z,18.20
2022-09-05T02:45:12.049Z,18.09
2022-09-05T02:45:14.210Z,18.11
2022-09-05T02:45:18.108Z,18.09
2022-09-05T02:45:20.930Z,18.09
2022-09-05T02:45:27.739Z,18.13
2022-09-05T02:46:25.511Z,18.09
2022-09-05T02:47:25.386Z,18.11
2022-09-05T02:48:25.369Z,18.05
2022-09-05T02:51:08.242Z,18.06
2022-09-05T02:53:54.131Z,17.97
2022-09-05T02:55:58.787Z,18.02
2022-09-05T02:57:24.666Z,18.06
2022-09-05T02:57:34.408Z,18.03
2022-09-05T02:57:34.734Z,18.02
2022-09-05T02:57:35.085Z,17.97
2022-09-05T02:57:41.360Z,18.06
2022-09-05T02:58:04.978Z,17.96
2022-09-05T02:58:26.402Z,17.91
2022-09-05T02:59:35.858Z,17.97
2022-09-05T03:00:26.254Z,18.01
2022-09-05T03:01:25.288Z,17.91
2022-09-05T03:02:26.877Z,17.99
2022-09-05T03:03:25.201Z,17.87
2022-09-05T03:04:25.195Z,17.91
2022-09-05T03:05:25.198Z,17.94
2022-09-05T03:06:34.456Z,17.87
2022-09-05T03:07:26.163Z,17.87
2022-09-05T03:08:25.274Z,17.88
2022-09-05T03:09:25.136Z,17.83
2022-09-05T03:10:28.288Z,17.81
2022-09-05T03:11:26.117Z,17.84
2022-09-05T03:12:28.907Z,17.84
2022-09-05T03:13:25.097Z,17.84
2022-09-05T03:14:25.083Z,17.87
2022-09-05T03:15:25.073Z,17.88
2022-09-05T03:16:25.134Z,17.90
2022-09-05T03:17:25.064Z,17.83
2022-09-05T03:18:25.049Z,17.87
2022-09-05T03:19:25.045Z,17.75
2022-09-05T03:20:25.018Z,17.81
2022-09-05T03:21:25.024Z,17.87
2022-09-05T03:22:24.996Z,17.75
2022-09-05T03:23:24.991Z,17.75
2022-09-05T03:24:25.972Z,17.76
2022-09-05T03:25:24.989Z,17.75
2022-09-05T03:26:24.960Z,17.68
2022-09-05T03:27:29.208Z,17.75
2022-09-05T03:28:25.028Z,17.63
2022-09-05T03:29:24.915Z,17.76
2022-09-05T03:30:24.916Z,17.66
2022-09-05T03:31:24.931Z,17.66
2022-09-05T03:32:24.899Z,17.66
2022-09-05T03:33:24.878Z,17.57
2022-09-05T03:34:24.873Z,17.62
2022-09-05T03:35:24.863Z,17.65
2022-09-05T03:36:24.846Z,17.68
2022-09-05T03:37:24.836Z,17.69
2022-09-05T03:38:24.993Z,17.71
2022-09-05T03:39:24.840Z,17.59
2022-09-05T03:40:24.838Z,17.62
2022-09-05T03:41:30.261Z,17.63
2022-09-05T03:42:29.117Z,17.66
2022-09-05T03:43:25.806Z,17.56
2022-09-05T03:44:24.756Z,17.52
2022-09-05T03:45:36.299Z,17.52
2022-09-05T03:46:25.806Z,17.50
2022-09-05T03:47:24.720Z,17.49
2022-09-05T03:48:28.838Z,17.50
2022-09-05T03:51:18.425Z,17.50
2022-09-05T03:57:04.688Z,17.49
2022-09-05T03:57:06.233Z,17.47
2022-09-05T03:57:10.632Z,17.50
2022-09-05T03:57:14.940Z,17.45
2022-09-05T03:57:17.060Z,17.45
2022-09-05T03:57:19.160Z,17.49
2022-09-05T03:57:19.607Z,17.47
2022-09-05T03:57:37.017Z,17.41
2022-09-05T03:58:36.692Z,17.41
2022-09-05T03:59:25.591Z,17.43
2022-09-05T04:00:24.603Z,17.41
2022-09-05T04:02:10.193Z,17.39
2022-09-05T04:07:08.699Z,17.41
2022-09-05T04:08:07.123Z,17.41
2022-09-05T04:08:10.607Z,17.46
2022-09-05T04:08:17.180Z,17.39
2022-09-05T04:08:26.394Z,17.43
2022-09-05T04:08:28.800Z,17.41
2022-09-05T04:08:38.650Z,17.34
2022-09-05T04:09:43.330Z,17.35
2022-09-05T04:10:25.559Z,17.43
2022-09-05T04:11:24.461Z,17.41
2022-09-05T04:12:24.476Z,17.45
2022-09-05T04:13:24.433Z,17.38
2022-09-05T04:14:24.422Z,17.35
2022-09-05T04:15:24.460Z,17.38
2022-09-05T04:16:24.419Z,17.31
2022-09-05T04:17:24.388Z,17.32
2022-09-05T04:18:25.730Z,17.28
2022-09-05T04:19:25.376Z,17.24
2022-09-05T04:20:24.357Z,17.32
2022-09-05T04:21:24.366Z,17.30
2022-09-05T04:22:24.338Z,17.24
2022-09-05T04:23:25.179Z,17.19
2022-09-05T04:24:24.309Z,17.25
2022-09-05T04:25:24.307Z,17.17
2022-09-05T04:26:24.322Z,17.24
2022-09-05T04:27:27.777Z,17.19
2022-09-05T04:28:24.429Z,17.19
2022-09-05T04:29:24.281Z,17.20
2022-09-05T04:30:37.931Z,17.14
2022-09-05T04:31:25.373Z,17.17
2022-09-05T04:32:24.267Z,17.16
2022-09-05T04:33:36.144Z,17.20
2022-09-05T04:34:25.249Z,17.07
2022-09-05T04:35:24.202Z,17.17
2022-09-05T04:36:24.201Z,17.14
2022-09-05T04:37:24.185Z,17.14
2022-09-05T04:38:24.281Z,17.14
2022-09-05T04:39:24.223Z,17.16
2022-09-05T04:40:24.164Z,17.14
2022-09-05T04:41:39.940Z,17.17
2022-09-05T04:42:25.153Z,17.12
2022-09-05T04:43:24.108Z,17.12
2022-09-05T04:44:24.104Z,17.04
2022-09-05T04:45:24.647Z,17.07
2022-09-05T04:46:24.166Z,17.06
2022-09-05T04:47:24.087Z,17.16
2022-09-05T04:48:24.202Z,17.09
2022-09-05T04:49:24.268Z,17.10
2022-09-05T04:50:24.159Z,17.01
2022-09-05T04:51:24.048Z,17.09
2022-09-05T04:52:28.905Z,17.07
2022-09-05T04:53:25.016Z,17.06
2022-09-05T04:54:23.987Z,17.09
2022-09-05T04:55:24.975Z,17.13
2022-09-05T04:56:23.961Z,17.01
2022-09-05T04:57:23.959Z,17.07
2022-09-05T04:58:32.386Z,17.02
2022-09-05T05:01:39.322Z,17.02
2022-09-05T05:06:02.788Z,16.97
2022-09-05T05:06:09.962Z,16.99
2022-09-05T05:06:12.748Z,16.95
2022-09-05T05:06:13.724Z,16.99
2022-09-05T05:06:17.107Z,17.01
2022-09-05T05:06:18.704Z,16.98
2022-09-05T05:06:38.049Z,16.97
2022-09-05T05:07:24.968Z,17.01
2022-09-05T05:08:35.065Z,16.95
2022-09-05T05:09:24.824Z,16.98
2022-09-05T05:12:48.177Z,16.99
2022-09-05T05:16:23.869Z,16.92
2022-09-05T05:17:53.994Z,16.95
2022-09-05T05:17:55.062Z,16.98
2022-09-05T05:17:59.776Z,16.99
2022-09-05T05:18:09.409Z,16.98
2022-09-05T05:18:10.726Z,16.99
2022-09-05T05:18:16.112Z,16.99
2022-09-05T05:18:37.783Z,16.98
2022-09-05T05:19:24.944Z,16.88
2022-09-05T05:20:42.072Z,16.94
2022-09-05T05:21:24.697Z,16.98
2022-09-05T05:22:23.689Z,16.98
2022-09-05T05:23:23.687Z,16.98
2022-09-05T05:24:23.676Z,16.98
2022-09-05T05:25:23.654Z,16.98
2022-09-05T05:26:23.684Z,16.99
2022-09-05T05:27:23.630Z,16.99
2022-09-05T05:28:24.754Z,16.92
2022-09-05T05:29:23.641Z,16.97
2022-09-05T05:30:23.629Z,16.88
2022-09-05T05:31:23.652Z,16.97
2022-09-05T05:32:24.892Z,17.01
2022-09-05T05:33:24.564Z,16.98
2022-09-05T05:34:24.442Z,16.91
2022-09-05T05:35:23.554Z,17.02
2022-09-05T05:36:23.558Z,16.97
2022-09-05T05:37:23.533Z,16.97
2022-09-05T05:38:23.609Z,16.98
2022-09-05T05:39:23.605Z,17.04
2022-09-05T05:40:23.510Z,17.02
2022-09-05T05:41:23.489Z,17.06
2022-09-05T05:42:23.484Z,16.97
2022-09-05T05:43:23.457Z,16.95
2022-09-05T05:44:23.459Z,17.02
2022-09-05T05:45:23.440Z,17.16
2022-09-05T05:46:23.510Z,17.04
2022-09-05T05:47:31.373Z,17.06
2022-09-05T05:48:24.586Z,16.99
2022-09-05T05:49:23.430Z,17.07
2022-09-05T05:50:23.383Z,17.02
2022-09-05T05:51:34.592Z,17.06
2022-09-05T05:52:24.374Z,17.13
2022-09-05T05:53:30.410Z,17.07
2022-09-05T05:54:24.708Z,17.12
2022-09-05T05:55:50.801Z,17.13
2022-09-05T05:56:24.318Z,17.07
2022-09-05T05:57:23.306Z,17.14
2022-09-05T05:58:23.326Z,17.16
2022-09-05T05:59:24.940Z,17.17
2022-09-05T06:00:27.879Z,17.10
2022-09-05T06:01:38.159Z,17.17
2022-09-05T06:02:24.321Z,17.02
2022-09-05T06:03:26.803Z,17.06
2022-09-05T06:04:23.243Z,17.06
2022-09-05T06:05:23.278Z,17.07
2022-09-05T06:06:23.244Z,17.12
2022-09-05T06:07:23.214Z,17.17
2022-09-05T06:11:57.017Z,17.09
2022-09-05T06:12:03.217Z,17.09
2022-09-05T06:14:51.646Z,17.17
2022-09-05T06:14:55.254Z,17.10
2022-09-05T06:14:57.019Z,17.16
2022-09-05T06:15:05.251Z,17.10
2022-09-05T06:15:09.111Z,17.22
2022-09-05T06:15:25.027Z,17.14
2022-09-05T06:16:23.235Z,17.22
2022-09-05T06:17:27.887Z,17.22
2022-09-05T06:18:24.076Z,17.16
2022-09-05T06:19:23.079Z,17.19
2022-09-05T06:22:04.513Z,17.20
2022-09-05T06:22:08.805Z,17.20
2022-09-05T06:22:24.046Z,17.25
2022-09-05T06:23:38.948Z,17.25
2022-09-05T06:24:24.010Z,17.31
2022-09-05T06:25:23.028Z,17.22
2022-09-05T06:26:22.999Z,17.28
2022-09-05T06:27:23.015Z,17.27
2022-09-05T06:28:22.985Z,17.28
2022-09-05T06:29:22.963Z,17.28
2022-09-05T06:30:22.961Z,17.31
2022-09-05T06:31:31.143Z,17.37
2022-09-05T06:32:23.956Z,17.39
2022-09-05T06:33:22.970Z,17.43
2022-09-05T06:34:35.166Z,17.37
2022-09-05T06:35:23.914Z,17.47
2022-09-05T06:36:22.911Z,17.39
2022-09-05T06:37:22.875Z,17.43
2022-09-05T06:38:22.879Z,17.38
2022-09-05T06:39:22.912Z,17.49
2022-09-05T06:40:22.878Z,17.38
2022-09-05T06:41:22.834Z,17.43
2022-09-05T06:42:30.695Z,17.43
2022-09-05T06:43:23.847Z,17.49
2022-09-05T06:44:23.968Z,17.39
2022-09-05T06:45:28.246Z,17.53
2022-09-05T06:46:54.900Z,17.50
2022-09-05T06:47:33.678Z,17.54
2022-09-05T06:48:44.373Z,17.49
2022-09-05T06:49:23.764Z,17.52
2022-09-05T06:50:27.157Z,17.54
2022-09-05T06:51:22.736Z,17.56
2022-09-05T06:52:29.750Z,17.65
2022-09-05T06:53:23.823Z,17.69
2022-09-05T06:54:22.692Z,17.62
2022-09-05T06:55:22.701Z,17.59
2022-09-05T06:56:26.069Z,17.63
2022-09-05T06:57:22.653Z,17.76
2022-09-05T06:58:22.651Z,17.65
2022-09-05T06:59:22.634Z,17.76
2022-09-05T07:00:22.945Z,17.83
2022-09-05T07:01:22.694Z,17.87
2022-09-05T07:02:27.284Z,17.78
2022-09-05T07:03:23.975Z,17.86
2022-09-05T07:04:49.446Z,17.93
2022-09-05T07:05:39.783Z,17.86
2022-09-05T07:06:23.566Z,17.86
2022-09-05T07:07:23.539Z,17.96
2022-09-05T07:08:36.328Z,17.97
2022-09-05T07:09:23.533Z,18.02
2022-09-05T07:10:37.986Z,18.01
2022-09-05T07:11:23.512Z,17.94
2022-09-05T07:12:22.488Z,17.99
2022-09-05T07:13:22.511Z,18.11
2022-09-05T07:14:22.464Z,18.05
2022-09-05T07:15:22.475Z,18.17
2022-09-05T07:16:37.196Z,18.11
2022-09-05T07:17:23.449Z,18.15
2022-09-05T07:18:22.417Z,18.18
2022-09-05T07:19:22.407Z,18.23
2022-09-05T07:20:22.393Z,18.23
2022-09-05T07:21:26.667Z,18.26
2022-09-05T07:22:46.367Z,18.27
2022-09-05T07:24:07.215Z,18.34
2022-09-05T07:24:54.799Z,18.36
2022-09-05T07:25:26.290Z,18.39
2022-09-05T07:26:49.705Z,18.34
2022-09-05T07:27:25.425Z,18.31
2022-09-05T07:28:28.302Z,18.36
2022-09-05T07:29:23.290Z,18.48
2022-09-05T07:30:22.344Z,18.43
2022-09-05T07:31:27.525Z,18.45
2022-09-05T07:32:24.687Z,18.38
2022-09-05T07:33:22.260Z,18.51
2022-09-05T07:34:22.261Z,18.54
2022-09-05T07:35:22.281Z,18.57
2022-09-05T07:36:22.218Z,18.57
2022-09-05T07:37:22.242Z,18.58
2022-09-05T07:38:22.236Z,18.66
2022-09-05T07:39:29.187Z,18.68
2022-09-05T07:40:26.112Z,18.63
2022-09-05T07:41:22.170Z,18.71
2022-09-05T07:42:22.207Z,18.78
2022-09-05T07:43:22.228Z,18.78
2022-09-05T07:44:22.326Z,18.79
2022-09-05T07:45:22.265Z,18.85
2022-09-05T07:46:22.141Z,18.85
2022-09-05T07:47:22.122Z,18.94
2022-09-05T07:48:22.381Z,18.91
2022-09-05T07:49:23.080Z,18.91
2022-09-05T07:52:15.616Z,18.97
2022-09-05T07:56:51.337Z,18.97
2022-09-05T07:56:51.595Z,19.08
2022-09-05T07:56:51.933Z,19.15
2022-09-05T07:56:53.746Z,19.00
2022-09-05T07:57:02.243Z,19.13
2022-09-05T07:57:08.676Z,19.13
2022-09-05T07:57:30.769Z,19.20
2022-09-05T07:58:22.985Z,19.17
2022-09-05T07:59:21.966Z,19.20
2022-09-05T08:00:25.576Z,19.31
2022-09-05T08:01:23.054Z,19.27
2022-09-05T08:02:21.961Z,19.32
2022-09-05T08:03:21.925Z,19.30
2022-09-05T08:04:21.927Z,19.34
2022-09-05T08:05:21.950Z,19.37
2022-09-05T08:07:45.586Z,19.39
2022-09-05T08:07:49.061Z,19.45
2022-09-05T08:08:23.079Z,19.49
2022-09-05T08:10:08.439Z,19.52
2022-09-05T08:10:30.934Z,19.54
2022-09-05T08:11:26.235Z,19.54
2022-09-05T08:12:27.646Z,19.57
2022-09-05T08:13:27.476Z,19.59
2022-09-05T08:14:43.590Z,19.60
2022-09-05T08:15:22.799Z,19.62
2022-09-05T08:16:21.890Z,19.63
2022-09-05T08:17:27.483Z,19.67
2022-09-05T08:18:22.773Z,19.75
2022-09-05T08:19:21.743Z,19.75
2022-09-05T08:20:21.735Z,19.78
2022-09-05T08:21:27.246Z,19.75
2022-09-05T08:22:22.711Z,19.87
2022-09-05T08:23:21.730Z,19.84
2022-09-05T08:24:21.735Z,19.86
2022-09-05T08:25:21.676Z,19.86
2022-09-05T08:26:21.667Z,19.92
2022-09-05T08:27:21.667Z,20.00
2022-09-05T08:28:21.680Z,19.99
2022-09-05T08:29:21.647Z,20.05
2022-09-05T08:30:26.683Z,20.08
2022-09-05T08:31:22.653Z,20.12
2022-09-05T08:32:21.606Z,20.15
2022-09-05T08:33:21.598Z,20.22
2022-09-05T08:34:31.342Z,20.25
2022-09-05T08:35:22.567Z,20.18
2022-09-05T08:36:21.567Z,20.33
2022-09-05T08:37:21.880Z,20.29
2022-09-05T08:38:21.604Z,20.30
2022-09-05T08:39:21.599Z,20.42
2022-09-05T08:40:21.549Z,20.33
2022-09-05T08:41:25.910Z,20.42
2022-09-05T08:42:22.505Z,20.36
2022-09-05T08:46:36.372Z,20.44
2022-09-05T08:46:40.813Z,20.37
2022-09-05T08:46:40.814Z,20.37
2022-09-05T08:46:48.495Z,20.52
2022-09-05T08:47:22.470Z,20.56
2022-09-05T08:48:21.426Z,20.56
2022-09-05T08:49:32.432Z,20.63
2022-09-05T08:50:26.719Z,20.60
2022-09-05T08:51:21.410Z,20.67
2022-09-05T08:52:21.385Z,20.71
2022-09-05T08:53:45.492Z,20.73
2022-09-05T08:54:22.404Z,20.86
2022-09-05T08:55:21.353Z,20.82
2022-09-05T08:56:21.341Z,20.83
2022-09-05T08:57:21.328Z,20.85
2022-09-05T08:58:21.319Z,20.95
2022-09-05T08:59:28.990Z,20.95
2022-09-05T09:00:24.688Z,20.97
2022-09-05T09:01:22.323Z,20.92
2022-09-05T09:02:47.003Z,21.10
2022-09-05T09:03:22.680Z,21.08
2022-09-05T09:05:00.649Z,21.10
2022-09-05T09:05:22.259Z,21.18
2022-09-05T09:06:21.701Z,21.13
2022-09-05T09:07:47.701Z,21.19
2022-09-05T09:08:22.578Z,21.25
2022-09-05T09:09:21.195Z,21.30
2022-09-05T09:10:22.605Z,21.32
2022-09-05T09:11:21.193Z,21.28
2022-09-05T09:12:21.161Z,21.37
2022-09-05T09:13:21.274Z,21.35
2022-09-05T09:14:30.317Z,21.40
2022-09-05T09:15:22.129Z,21.45
2022-09-05T09:16:21.239Z,21.55
2022-09-05T09:17:21.105Z,21.55
2022-09-05T09:18:21.096Z,21.59
2022-09-05T09:19:29.067Z,21.59
2022-09-05T09:20:22.078Z,21.59
2022-09-05T09:21:21.077Z,21.59
2022-09-05T09:22:21.058Z,21.67
2022-09-05T09:23:31.949Z,21.67
2022-09-05T09:24:22.038Z,21.73
2022-09-05T09:25:25.116Z,21.73
2022-09-05T09:26:24.646Z,21.88
2022-09-05T09:27:25.913Z,21.85
2022-09-05T09:28:50.482Z,21.77
2022-09-05T09:29:21.982Z,21.93
2022-09-05T09:30:20.970Z,21.94
2022-09-05T09:31:21.050Z,21.98
2022-09-05T09:32:20.977Z,22.03
2022-09-05T09:33:21.003Z,22.04
2022-09-05T09:34:21.928Z,22.12
2022-09-05T09:35:20.926Z,22.13
2022-09-05T09:36:20.905Z,22.15
2022-09-05T09:37:31.942Z,22.21
2022-09-05T09:38:21.913Z,22.15
2022-09-05T09:39:38.182Z,22.23
2022-09-05T09:40:21.926Z,22.30
2022-09-05T09:41:20.859Z,22.27
2022-09-05T09:42:32.357Z,22.31
2022-09-05T09:43:21.861Z,22.38
2022-09-05T09:44:20.836Z,22.34
2022-09-05T09:45:22.487Z,22.41
2022-09-05T09:46:21.887Z,22.49
2022-09-05T09:47:20.782Z,22.56
2022-09-05T09:48:20.799Z,22.59
2022-09-05T09:49:23.046Z,22.62
2022-09-05T09:50:20.782Z,22.59
2022-09-05T09:51:20.739Z,22.70
2022-09-05T09:52:21.425Z,22.68
2022-09-05T09:53:20.742Z,22.80
2022-09-05T09:54:20.722Z,22.88
2022-09-05T09:55:21.282Z,22.85
2022-09-05T09:56:20.704Z,22.83
2022-09-05T09:57:20.676Z,22.92
2022-09-05T09:58:20.887Z,22.99
2022-09-05T09:59:20.666Z,23.03
2022-09-05T10:00:20.639Z,23.06
2022-09-05T10:01:36.585Z,23.06
2022-09-05T10:03:26.971Z,23.11
2022-09-05T10:04:55.570Z,23.25
2022-09-05T10:10:33.077Z,23.23
2022-09-05T10:10:38.669Z,23.34
2022-09-05T10:10:53.559Z,23.26
2022-09-05T10:10:53.746Z,23.36
2022-09-05T10:10:54.669Z,23.44
2022-09-05T10:10:58.569Z,23.33
2022-09-05T10:10:59.479Z,23.39
2022-09-05T10:12:21.673Z,23.46
2022-09-05T10:13:20.519Z,23.51
2022-09-05T10:14:26.174Z,23.59
2022-09-05T10:15:31.547Z,23.66
2022-09-05T10:16:21.517Z,23.70
2022-09-05T10:17:20.449Z,23.76
2022-09-05T10:18:20.502Z,23.78
2022-09-05T10:20:06.326Z,23.76
2022-09-05T10:20:23.232Z,23.76
2022-09-05T10:21:20.421Z,23.96
2022-09-05T10:22:37.285Z,23.92
2022-09-05T10:23:21.501Z,24.04
2022-09-05T10:24:20.381Z,23.97
2022-09-05T10:25:20.375Z,23.98
2022-09-05T10:26:20.371Z,24.16
2022-09-05T10:27:20.342Z,24.18
2022-09-05T10:28:20.342Z,24.23
2022-09-05T10:29:36.924Z,24.22
2022-09-05T10:31:09.587Z,24.31
2022-09-05T10:34:47.524Z,24.36
2022-09-05T10:35:10.063Z,24.41
2022-09-05T10:35:15.103Z,24.52
2022-09-05T10:35:18.066Z,24.58
2022-09-05T10:35:23.777Z,24.65
2022-09-05T10:36:20.266Z,24.74
2022-09-05T10:37:20.243Z,24.75
2022-09-05T10:38:20.249Z,24.82
2022-09-05T10:39:21.105Z,24.82
2022-09-05T10:40:20.202Z,24.91
2022-09-05T10:41:22.964Z,24.94
2022-09-05T10:42:20.229Z,25.08
2022-09-05T10:43:20.212Z,25.21
2022-09-05T10:44:20.168Z,25.22
2022-09-05T10:45:20.151Z,25.31
2022-09-05T10:46:49.011Z,25.52
2022-09-05T10:47:21.336Z,25.55
2022-09-05T10:48:20.113Z,25.64
2022-09-05T10:49:20.106Z,25.61
2022-09-05T10:50:20.109Z,25.73
2022-09-05T10:51:27.068Z,25.75
2022-09-05T10:52:21.091Z,25.78
2022-09-05T10:53:20.142Z,25.90
2022-09-05T10:54:20.046Z,25.89
2022-09-05T10:55:20.040Z,26.01
2022-09-05T10:56:20.032Z,26.10
2022-09-05T10:57:20.012Z,26.16
2022-09-05T10:58:30.410Z,26.33
2022-09-05T11:02:16.153Z,26.43
2022-09-05T11:02:29.327Z,26.51
2022-09-05T11:02:30.089Z,26.65
2022-09-05T11:02:34.744Z,26.68
2022-09-05T11:03:25.080Z,26.79
2022-09-05T11:04:20.056Z,26.75
2022-09-05T11:05:20.012Z,26.76
2022-09-05T11:06:24.677Z,26.82
2022-09-05T11:07:27.891Z,26.93
2022-09-05T11:08:20.913Z,27.03
2022-09-05T11:09:19.892Z,27.01
2022-09-05T11:10:19.914Z,27.15
2022-09-05T11:11:34.862Z,27.17
2022-09-05T11:12:20.863Z,27.25
2022-09-05T11:13:20.028Z,27.25
2022-09-05T11:14:26.911Z,27.35
2022-09-05T11:15:20.821Z,27.44
2022-09-05T11:16:19.848Z,27.42
2022-09-05T11:17:19.801Z,27.47
2022-09-05T11:18:19.818Z,27.52
2022-09-05T11:19:19.785Z,27.61
2022-09-05T11:20:26.126Z,27.61
2022-09-05T11:21:20.758Z,27.68
2022-09-05T11:22:22.975Z,27.64
2022-09-05T11:23:19.846Z,27.80
2022-09-05T11:24:22.090Z,27.79
2022-09-05T11:25:21.104Z,27.78
2022-09-05T11:26:20.703Z,27.80
2022-09-05T11:27:24.415Z,27.90
2022-09-05T11:28:20.710Z,27.83
2022-09-05T11:29:19.678Z,27.91
2022-09-05T11:30:28.565Z,27.88
2022-09-05T11:31:20.701Z,27.94
2022-09-05T11:34:18.236Z,28.06
2022-09-05T11:38:43.957Z,28.10
2022-09-05T11:39:42.499Z,28.03
2022-09-05T11:39:48.875Z,28.13
2022-09-05T11:39:53.323Z,28.20
2022-09-05T11:39:55.070Z,28.17
2022-09-05T11:40:07.230Z,28.19
2022-09-05T11:40:08.918Z,28.15
2022-09-05T11:40:29.082Z,28.28
2022-09-05T11:41:21.069Z,28.28
2022-09-05T11:42:19.541Z,28.30
2022-09-05T11:43:19.527Z,28.37
2022-09-05T11:44:26.199Z,28.46
2022-09-05T11:45:20.535Z,28.49
2022-09-05T11:46:19.546Z,28.47
2022-09-05T11:47:28.713Z,28.53
2022-09-05T11:48:20.549Z,28.56
2022-09-05T11:49:19.458Z,28.68
2022-09-05T11:50:19.474Z,28.71
2022-09-05T11:51:19.442Z,28.74
2022-09-05T11:52:20.431Z,28.87
2022-09-05T11:53:19.425Z,28.86
2022-09-05T11:54:19.407Z,28.93
2022-09-05T11:55:20.889Z,29.12
2022-09-05T11:56:19.399Z,29.33
2022-09-05T11:57:33.091Z,29.49
2022-09-05T11:58:44.846Z,29.71
2022-09-05T11:59:33.266Z,29.92
2022-09-05T12:01:41.876Z,30.28
2022-09-05T12:02:23.578Z,30.58
2022-09-05T12:03:57.730Z,30.73
2022-09-05T12:04:20.445Z,30.88
2022-09-05T12:05:50.521Z,31.07
2022-09-05T12:06:20.351Z,31.07
2022-09-05T12:08:20.258Z,31.24
2022-09-05T12:09:23.625Z,31.19
2022-09-05T12:10:46.219Z,31.14
2022-09-05T12:11:20.234Z,30.97
2022-09-05T12:12:39.245Z,31.02
2022-09-05T12:13:24.569Z,30.95
2022-09-05T12:14:25.513Z,30.96
2022-09-05T12:15:20.180Z,30.85
2022-09-05T12:16:19.256Z,31.01
2022-09-05T12:17:20.612Z,31.07
2022-09-05T12:18:21.605Z,31.04
2022-09-05T12:19:20.139Z,31.10
2022-09-05T12:20:22.088Z,31.12
2022-09-05T12:21:19.851Z,31.24
2022-09-05T12:22:23.861Z,31.23
2022-09-05T12:23:49.410Z,31.24
2022-09-05T12:25:23.974Z,31.19
2022-09-05T12:27:39.964Z,31.37
2022-09-05T12:27:40.717Z,31.51
2022-09-05T12:29:27.775Z,31.56
2022-09-05T12:29:33.778Z,31.52
2022-09-05T12:30:20.016Z,31.64
2022-09-05T12:32:34.419Z,31.61
2022-09-05T12:33:52.319Z,31.61
2022-09-05T12:36:02.108Z,31.60
2022-09-05T12:36:05.777Z,31.68
2022-09-05T12:36:07.464Z,31.61
2022-09-05T12:40:38.228Z,31.60
2022-09-05T12:40:46.291Z,31.70
2022-09-05T12:40:57.583Z,31.70
2022-09-05T12:41:01.250Z,30.21
2022-09-05T12:41:34.322Z,31.63
2022-09-05T12:41:36.988Z,31.66
2022-09-05T12:41:40.968Z,31.17
2022-09-05T12:41:41.567Z,31.34
2022-09-05T12:41:42.624Z,31.63
2022-09-05T12:42:24.038Z,31.67
2022-09-05T12:44:41.192Z,31.61
2022-09-05T12:44:45.316Z,31.71
2022-09-05T12:45:20.133Z,31.63
2022-09-05T12:46:24.203Z,31.68
2022-09-05T12:47:21.053Z,31.70
2022-09-05T12:48:18.826Z,31.67
2022-09-05T12:49:18.822Z,31.74
2022-09-05T12:50:18.806Z,31.70
2022-09-05T12:51:46.828Z,31.63
2022-09-05T12:52:19.798Z,31.67
2022-09-05T12:53:18.776Z,31.66